createdAt,value
2022-11-21T00:00:50.292Z,1.78
2022-11-21T00:03:17.616Z,1.77
2022-11-21T00:05:47.355Z,1.77
2022-11-21T00:08:16.753Z,1.78
2022-11-21T00:10:43.598Z,1.79
2022-11-21T00:13:19.808Z,1.78
2022-11-21T00:15:47.316Z,1.79
2022-11-21T00:18:14.501Z,1.79
2022-11-21T00:20:42.400Z,1.78
2022-11-21T00:23:09.372Z,1.76
2022-11-21T00:25:37.076Z,1.74
2022-11-21T00:28:04.942Z,1.75
2022-11-21T00:30:31.482Z,1.76
2022-11-21T00:32:58.840Z,1.75
2022-11-21T00:35:25.479Z,1.76
2022-11-21T00:37:52.023Z,1.77
2022-11-21T00:40:18.957Z,1.75
2022-11-21T00:42:45.542Z,1.75
2022-11-21T00:45:12.298Z,1.73
2022-11-21T00:47:38.980Z,1.73
2022-11-21T00:50:06.012Z,1.71
2022-11-21T00:52:32.629Z,1.71
2022-11-21T00:54:59.185Z,1.69
2022-11-21T00:57:25.901Z,1.70
2022-11-21T00:59:52.468Z,1.70
2022-11-21T01:02:19.103Z,1.70
2022-11-21T01:04:45.865Z,1.71
2022-11-21T01:07:14.575Z,1.74
2022-11-21T01:09:41.186Z,1.73
2022-11-21T01:12:07.887Z,1.70
2022-11-21T01:14:34.437Z,1.72
2022-11-21T01:17:01.014Z,1.71
2022-11-21T01:19:27.702Z,1.72
2022-11-21T01:21:54.296Z,1.73
2022-11-21T01:24:20.876Z,1.74
2022-11-21T01:26:49.153Z,1.71
2022-11-21T01:29:16.917Z,1.70
2022-11-21T01:31:43.515Z,1.68
2022-11-21T01:34:10.215Z,1.68
2022-11-21T01:36:36.846Z,1.68
2022-11-21T01:39:06.033Z,1.69
2022-11-21T01:41:37.284Z,1.69
2022-11-21T01:44:19.143Z,1.70
2022-11-21T01:46:46.486Z,1.71
2022-11-21T01:49:17.942Z,1.72
2022-11-21T01:51:51.243Z,1.70
2022-11-21T01:54:30.086Z,1.71
2022-11-21T01:57:05.856Z,1.73
2022-11-21T01:59:43.678Z,1.75
2022-11-21T02:02:12.652Z,1.75
2022-11-21T02:04:42.941Z,1.77
2022-11-21T02:07:13.619Z,1.79
2022-11-21T02:09:42.905Z,1.80
2022-11-21T02:12:19.201Z,1.81
2022-11-21T02:14:46.779Z,1.82
2022-11-21T02:17:13.371Z,1.81
2022-11-21T02:20:02.129Z,1.79
2022-11-21T02:22:43.742Z,1.80
2022-11-21T02:25:14.808Z,1.81
2022-11-21T02:27:42.118Z,1.78
2022-11-21T02:30:10.494Z,1.77
2022-11-21T02:32:42.505Z,1.77
2022-11-21T02:35:09.507Z,1.77
2022-11-21T02:37:37.586Z,1.77
2022-11-21T02:40:10.149Z,1.81
2022-11-21T02:43:01.774Z,1.82
2022-11-21T02:45:36.315Z,1.81
2022-11-21T02:48:04.446Z,1.79
2022-11-21T02:50:32.751Z,1.79
2022-11-21T02:52:59.535Z,1.79
2022-11-21T02:55:26.397Z,1.76
2022-11-21T02:57:53.819Z,1.74
2022-11-21T03:00:21.162Z,1.75
2022-11-21T03:02:48.537Z,1.75
2022-11-21T03:05:17.391Z,1.76
2022-11-21T03:07:44.922Z,1.75
2022-11-21T03:10:11.822Z,1.73
2022-11-21T03:12:39.715Z,1.73
2022-11-21T03:15:08.663Z,1.75
2022-11-21T03:17:35.595Z,1.76
2022-11-21T03:20:02.388Z,1.76
2022-11-21T03:22:28.965Z,1.78
2022-11-21T03:24:55.538Z,1.79
2022-11-21T03:27:22.101Z,1.79
2022-11-21T03:29:48.950Z,1.78
2022-11-21T03:32:15.583Z,1.76
2022-11-21T03:34:42.150Z,1.75
2022-11-21T03:37:09.296Z,1.76
2022-11-21T03:39:35.838Z,1.75
2022-11-21T03:42:02.489Z,1.76
2022-11-21T03:44:30.126Z,1.77
2022-11-21T03:46:56.899Z,1.79
2022-11-21T03:49:23.484Z,1.79
2022-11-21T03:51:50.067Z,1.77
2022-11-21T03:54:16.680Z,1.76
2022-11-21T03:56:43.343Z,1.75
2022-11-21T03:59:09.879Z,1.74
2022-11-21T04:01:37.192Z,1.75
2022-11-21T04:04:04.690Z,1.77
2022-11-21T04:06:31.760Z,1.79
2022-11-21T04:08:58.507Z,1.81
2022-11-21T04:11:25.347Z,1.80
2022-11-21T04:13:52.882Z,1.81
2022-11-21T04:16:20.119Z,1.81
2022-11-21T04:18:46.767Z,1.79
2022-11-21T04:21:13.465Z,1.77
2022-11-21T04:23:39.993Z,1.76
2022-11-21T04:26:07.597Z,1.75
2022-11-21T04:28:34.204Z,1.74
2022-11-21T04:31:10.899Z,1.71
2022-11-21T04:33:39.455Z,1.66
2022-11-21T04:36:07.879Z,1.59
2022-11-21T04:38:34.558Z,1.56
2022-11-21T04:41:01.075Z,1.50
2022-11-21T04:43:27.627Z,1.45
2022-11-21T04:45:54.189Z,1.41
2022-11-21T04:48:21.085Z,1.36
2022-11-21T04:50:47.780Z,1.30
2022-11-21T04:53:14.573Z,1.24
2022-11-21T04:55:41.146Z,1.23
2022-11-21T04:58:07.702Z,1.20
2022-11-21T05:00:34.698Z,1.18
2022-11-21T05:03:05.283Z,1.16
2022-11-21T05:05:31.961Z,1.16
2022-11-21T05:07:58.710Z,1.16
2022-11-21T05:10:25.525Z,1.15
2022-11-21T05:13:17.957Z,1.16
2022-11-21T05:15:44.901Z,1.18
2022-11-21T05:18:11.721Z,1.22
2022-11-21T05:20:38.336Z,1.24
2022-11-21T05:23:04.952Z,1.27
2022-11-21T05:25:32.566Z,1.31
2022-11-21T05:27:59.116Z,1.32
2022-11-21T05:30:25.699Z,1.33
2022-11-21T05:32:52.354Z,1.33
2022-11-21T05:35:19.083Z,1.35
2022-11-21T05:37:45.695Z,1.38
2022-11-21T05:40:12.774Z,1.39
2022-11-21T05:43:01.479Z,1.41
2022-11-21T05:45:28.067Z,1.43
2022-11-21T05:47:54.681Z,1.44
2022-11-21T05:50:21.427Z,1.43
2022-11-21T05:52:48.163Z,1.44
2022-11-21T05:55:15.028Z,1.43
2022-11-21T05:57:41.553Z,1.45
2022-11-21T06:00:08.880Z,1.45
2022-11-21T06:02:55.328Z,1.46
2022-11-21T06:05:21.851Z,1.47
2022-11-21T06:07:48.327Z,1.45
2022-11-21T06:10:15.138Z,1.45
2022-11-21T06:12:41.692Z,1.44
2022-11-21T06:15:08.485Z,1.42
2022-11-21T06:17:35.034Z,1.39
2022-11-21T06:20:02.186Z,1.34
2022-11-21T06:22:28.752Z,1.35
2022-11-21T06:24:55.444Z,1.34
2022-11-21T06:27:22.794Z,1.35
2022-11-21T06:29:49.355Z,1.35
2022-11-21T06:32:16.079Z,1.37
2022-11-21T06:34:42.657Z,1.39
2022-11-21T06:37:09.191Z,1.38
2022-11-21T06:39:35.720Z,1.40
2022-11-21T06:42:02.761Z,1.41
2022-11-21T06:44:29.647Z,1.39
2022-11-21T06:46:56.603Z,1.39
2022-11-21T06:49:23.288Z,1.40
2022-11-21T06:51:49.917Z,1.42
2022-11-21T06:54:17.176Z,1.41
2022-11-21T06:56:44.254Z,1.42
2022-11-21T06:59:11.843Z,1.41
2022-11-21T07:01:38.457Z,1.41
2022-11-21T07:04:05.332Z,1.40
2022-11-21T07:06:31.893Z,1.39
2022-11-21T07:09:31.496Z,1.36
2022-11-21T07:11:45.033Z,1.36
2022-11-21T07:14:11.627Z,1.38
2022-11-21T07:16:38.409Z,1.39
2022-11-21T07:19:05.108Z,1.39
2022-11-21T07:21:31.887Z,1.39
2022-11-21T07:23:58.559Z,1.39
2022-11-21T07:26:25.108Z,1.39
2022-11-21T07:28:51.666Z,1.40
2022-11-21T07:31:18.217Z,1.42
2022-11-21T07:33:45.727Z,1.45
2022-11-21T07:36:13.099Z,1.46
2022-11-21T07:38:41.725Z,1.45
2022-11-21T07:41:09.340Z,1.48
2022-11-21T07:43:35.878Z,1.51
2022-11-21T07:46:02.595Z,1.55
2022-11-21T07:48:29.386Z,1.57
2022-11-21T07:50:56.031Z,1.61
2022-11-21T07:53:22.617Z,1.60
2022-11-21T07:55:49.175Z,1.58
2022-11-21T07:58:17.122Z,1.55
2022-11-21T08:00:43.819Z,1.52
2022-11-21T08:03:14.539Z,1.52
2022-11-21T08:05:42.922Z,1.52
2022-11-21T08:08:11.148Z,1.52
2022-11-21T08:10:39.617Z,1.51
2022-11-21T08:13:06.245Z,1.52
2022-11-21T08:15:33.201Z,1.55
2022-11-21T08:18:07.654Z,1.56
2022-11-21T08:20:34.155Z,1.56
2022-11-21T08:23:00.758Z,1.57
2022-11-21T08:25:27.340Z,1.58
2022-11-21T08:27:57.576Z,1.58
2022-11-21T08:30:24.541Z,1.61
2022-11-21T08:32:51.202Z,1.64
2022-11-21T08:35:18.233Z,1.70
2022-11-21T08:37:44.853Z,1.75
2022-11-21T08:40:11.814Z,1.79
2022-11-21T08:42:38.400Z,1.82
2022-11-21T08:45:06.383Z,1.86
2022-11-21T08:47:34.206Z,1.90
2022-11-21T08:50:05.801Z,1.95
2022-11-21T08:52:35.521Z,2.03
2022-11-21T08:55:02.348Z,2.07
2022-11-21T08:57:29.090Z,2.14
2022-11-21T08:59:55.645Z,2.18
2022-11-21T09:02:22.491Z,2.22
2022-11-21T09:04:49.304Z,2.24
2022-11-21T09:07:15.884Z,2.23
2022-11-21T09:09:42.651Z,2.22
2022-11-21T09:12:09.237Z,2.24
2022-11-21T09:14:54.399Z,2.30
2022-11-21T09:17:39.624Z,2.34
2022-11-21T09:20:06.557Z,2.41
2022-11-21T09:22:33.346Z,2.47
2022-11-21T09:25:00.982Z,2.50
2022-11-21T09:27:27.720Z,2.52
2022-11-21T09:29:54.579Z,2.57
2022-11-21T09:32:21.672Z,2.61
2022-11-21T09:34:48.498Z,2.65
2022-11-21T09:37:15.203Z,2.69
2022-11-21T09:39:41.741Z,2.73
2022-11-21T09:42:08.421Z,2.75
2022-11-21T09:44:53.812Z,2.77
2022-11-21T09:47:33.449Z,2.79
2022-11-21T09:50:05.191Z,2.80
2022-11-21T09:52:44.558Z,2.82
2022-11-21T09:55:28.163Z,2.86
2022-11-21T09:57:55.598Z,2.89
2022-11-21T10:00:24.432Z,2.92
2022-11-21T10:02:52.746Z,2.95
2022-11-21T10:05:32.501Z,3.01
2022-11-21T10:08:07.376Z,3.01
2022-11-21T10:10:55.927Z,3.01
2022-11-21T10:13:28.532Z,3.03
2022-11-21T10:16:27.379Z,3.04
2022-11-21T10:18:54.001Z,3.09
2022-11-21T10:21:39.844Z,3.14
2022-11-21T10:24:23.698Z,3.14
2022-11-21T10:27:11.794Z,3.17
2022-11-21T10:29:45.334Z,3.18
2022-11-21T10:32:26.586Z,3.23
2022-11-21T10:34:58.496Z,3.21
2022-11-21T10:37:29.109Z,3.25
2022-11-21T10:39:56.741Z,3.30
2022-11-21T10:42:26.258Z,3.35
2022-11-21T10:45:11.343Z,3.36
2022-11-21T10:47:38.231Z,3.37
2022-11-21T10:50:10.643Z,3.38
2022-11-21T10:52:48.169Z,3.42
2022-11-21T10:55:16.635Z,3.47
2022-11-21T10:57:51.289Z,3.49
2022-11-21T11:00:21.855Z,3.51
2022-11-21T11:02:55.703Z,3.52
2022-11-21T11:05:25.053Z,3.52
2022-11-21T11:08:12.422Z,3.52
2022-11-21T11:11:01.868Z,3.51
2022-11-21T11:13:46.296Z,3.52
2022-11-21T11:16:19.221Z,3.52
2022-11-21T11:18:56.145Z,3.52
2022-11-21T11:21:24.872Z,3.52
2022-11-21T11:23:53.665Z,3.53
2022-11-21T11:26:29.011Z,3.57
2022-11-21T11:29:14.420Z,3.62
2022-11-21T11:31:51.114Z,3.62
2022-11-21T11:34:18.138Z,3.67
2022-11-21T11:37:12.842Z,3.70
2022-11-21T11:40:00.939Z,3.72
2022-11-21T11:43:07.460Z,3.75
2022-11-21T11:46:14.777Z,3.83
2022-11-21T11:49:11.030Z,3.90
2022-11-21T11:51:37.174Z,3.95
2022-11-21T11:54:12.699Z,4.00
2022-11-21T11:56:39.959Z,4.04
2022-11-21T11:59:18.825Z,4.08
2022-11-21T12:01:52.075Z,4.14
2022-11-21T12:04:21.901Z,4.24
2022-11-21T12:10:17.655Z,4.47
2022-11-21T12:13:03.448Z,4.49
2022-11-21T12:15:50.059Z,4.48
2022-11-21T12:18:22.278Z,4.48
2022-11-21T12:21:09.286Z,4.47
2022-11-21T12:23:49.272Z,4.47
2022-11-21T12:26:28.908Z,4.45
2022-11-21T12:29:34.781Z,4.44
2022-11-21T12:32:04.586Z,4.43
2022-11-21T12:34:55.756Z,4.43
2022-11-21T12:37:54.293Z,4.44
2022-11-21T12:40:42.638Z,4.44
2022-11-21T12:43:28.352Z,4.44
2022-11-21T12:46:24.766Z,4.46
2022-11-21T12:50:00.184Z,4.52
2022-11-21T12:52:59.525Z,4.53
2022-11-21T12:55:40.162Z,4.58
2022-11-21T12:58:18.673Z,4.61
2022-11-21T13:01:06.369Z,4.63
2022-11-21T13:03:45.724Z,4.64
2022-11-21T13:06:22.008Z,4.64
2022-11-21T13:08:51.840Z,4.65
2022-11-21T13:11:48.229Z,4.66
2022-11-21T13:14:51.852Z,4.67
2022-11-21T13:17:44.543Z,4.69
2022-11-21T13:20:18.301Z,4.72
2022-11-21T13:22:44.881Z,4.76
2022-11-21T13:25:35.903Z,4.79
2022-11-21T13:28:11.945Z,4.83
2022-11-21T13:30:49.042Z,4.85
2022-11-21T13:33:37.446Z,4.85
2022-11-21T13:36:10.031Z,4.83
2022-11-21T13:38:52.935Z,4.85
2022-11-21T13:41:53.228Z,4.87
2022-11-21T13:44:32.063Z,4.87
2022-11-21T13:47:03.500Z,4.87
2022-11-21T13:49:48.599Z,4.85
2022-11-21T13:52:28.553Z,4.85
2022-11-21T13:55:07.995Z,4.83
2022-11-21T13:57:59.996Z,4.84
2022-11-21T14:00:32.425Z,4.87
2022-11-21T14:03:05.093Z,4.89
2022-11-21T14:05:53.476Z,4.92
2022-11-21T14:08:23.590Z,4.95
2022-11-21T14:10:55.294Z,4.95
2022-11-21T14:13:29.553Z,4.95
2022-11-21T14:16:18.127Z,4.94
2022-11-21T14:18:47.227Z,4.94
2022-11-21T14:21:26.816Z,4.92
2022-11-21T14:24:00.261Z,4.93
2022-11-21T14:26:31.015Z,4.95
2022-11-21T14:29:37.783Z,4.95
2022-11-21T14:32:04.674Z,4.96
2022-11-21T14:34:50.199Z,4.97
2022-11-21T14:37:16.794Z,4.97
2022-11-21T14:39:45.075Z,4.97
2022-11-21T14:42:16.284Z,4.97
2022-11-21T14:44:43.385Z,4.97
2022-11-21T14:47:25.656Z,4.97
2022-11-21T14:49:59.662Z,4.95
2022-11-21T14:52:32.928Z,4.97
2022-11-21T14:57:50.154Z,4.96
2022-11-21T15:00:58.539Z,4.96
2022-11-21T15:03:22.802Z,4.97
2022-11-21T15:06:08.312Z,4.97
2022-11-21T15:09:58.955Z,4.97
2022-11-21T15:11:34.679Z,4.98
2022-11-21T15:14:16.785Z,4.98
2022-11-21T15:16:47.921Z,4.98
2022-11-21T15:19:23.916Z,5.00
2022-11-21T15:21:53.064Z,5.00
2022-11-21T15:24:40.068Z,4.98
2022-11-21T15:27:28.560Z,4.97
2022-11-21T15:30:21.942Z,4.97
2022-11-21T15:33:06.827Z,4.97
2022-11-21T15:35:47.705Z,4.95
2022-11-21T15:38:31.902Z,4.94
2022-11-21T15:41:10.575Z,4.94
2022-11-21T15:43:52.018Z,4.93
2022-11-21T15:46:30.451Z,4.89
2022-11-21T15:48:58.322Z,4.87
2022-11-21T15:51:59.507Z,4.85
2022-11-21T15:54:19.243Z,4.82
2022-11-21T15:56:49.624Z,4.80
2022-11-21T15:59:17.651Z,4.78
2022-11-21T16:01:44.205Z,4.77
2022-11-21T16:04:12.482Z,4.76
2022-11-21T16:06:39.150Z,4.75
2022-11-21T16:09:06.245Z,4.72
2022-11-21T16:11:37.425Z,4.69
2022-11-21T16:14:07.100Z,4.68
2022-11-21T16:16:42.659Z,4.68
2022-11-21T16:19:11.488Z,4.68
2022-11-21T16:21:38.250Z,4.68
2022-11-21T16:24:06.027Z,4.66
2022-11-21T16:26:33.592Z,4.67
2022-11-21T16:29:01.404Z,4.68
2022-11-21T16:31:29.781Z,4.68
2022-11-21T16:33:56.950Z,4.66
2022-11-21T16:36:25.900Z,4.67
2022-11-21T16:38:52.770Z,4.69
2022-11-21T16:41:21.614Z,4.70
2022-11-21T16:43:50.044Z,4.71
2022-11-21T16:46:17.817Z,4.71
2022-11-21T16:48:45.079Z,4.70
2022-11-21T16:51:13.660Z,4.70
2022-11-21T16:53:41.920Z,4.70
2022-11-21T16:56:10.415Z,4.70
2022-11-21T16:58:38.862Z,4.70
2022-11-21T17:01:18.941Z,4.71
2022-11-21T17:03:47.593Z,4.73
2022-11-21T17:06:17.585Z,4.72
2022-11-21T17:08:44.443Z,4.72
2022-11-21T17:11:18.988Z,4.72
2022-11-21T17:13:47.292Z,4.73
2022-11-21T17:16:15.845Z,4.72
2022-11-21T17:18:43.030Z,4.71
2022-11-21T17:21:11.991Z,4.71
2022-11-21T17:23:40.580Z,4.71
2022-11-21T17:26:12.766Z,4.69
2022-11-21T17:28:45.017Z,4.70
2022-11-21T17:31:14.911Z,4.69
2022-11-21T17:33:42.661Z,4.70
2022-11-21T17:36:14.325Z,4.69
2022-11-21T17:38:42.503Z,4.68
2022-11-21T17:41:11.664Z,4.67
2022-11-21T17:43:38.470Z,4.67
2022-11-21T17:46:10.240Z,4.68
2022-11-21T17:48:37.828Z,4.67
2022-11-21T17:51:09.480Z,4.68
2022-11-21T17:53:41.779Z,4.68
2022-11-21T17:56:11.527Z,4.68
2022-11-21T17:58:38.195Z,4.69
2022-11-21T18:01:06.954Z,4.69
2022-11-21T18:03:34.640Z,4.71
2022-11-21T18:06:02.340Z,4.71
2022-11-21T18:08:34.450Z,4.70
2022-11-21T18:11:02.087Z,4.70
2022-11-21T18:13:30.495Z,4.70
2022-11-21T18:16:08.664Z,4.70
2022-11-21T18:18:36.426Z,4.69
2022-11-21T18:21:07.263Z,4.68
2022-11-21T18:23:34.750Z,4.69
2022-11-21T18:26:06.797Z,4.70
2022-11-21T18:28:34.144Z,4.68
2022-11-21T18:31:10.870Z,4.67
2022-11-21T18:33:38.483Z,4.65
2022-11-21T18:36:07.358Z,4.64
2022-11-21T18:38:58.403Z,4.62
2022-11-21T18:41:29.271Z,4.61
2022-11-21T18:44:01.107Z,4.59
2022-11-21T18:46:29.752Z,4.58
2022-11-21T18:49:07.026Z,4.58
2022-11-21T18:51:35.818Z,4.56
2022-11-21T18:54:07.411Z,4.55
2022-11-21T18:56:35.522Z,4.56
2022-11-21T18:59:03.528Z,4.55
2022-11-21T19:01:31.931Z,4.55
2022-11-21T19:03:59.411Z,4.56
2022-11-21T19:06:26.886Z,4.56
2022-11-21T19:08:55.392Z,4.55
2022-11-21T19:11:27.639Z,4.57
2022-11-21T19:13:55.651Z,4.58
2022-11-21T19:16:26.994Z,4.58
2022-11-21T19:19:31.969Z,4.57
2022-11-21T19:21:42.442Z,4.55
2022-11-21T19:24:14.231Z,4.54
2022-11-21T19:26:41.318Z,4.52
2022-11-21T19:29:08.236Z,4.50
2022-11-21T19:31:40.688Z,4.49
2022-11-21T19:34:11.627Z,4.49
2022-11-21T19:36:39.609Z,4.47
2022-11-21T19:39:06.382Z,4.47
2022-11-21T19:41:33.064Z,4.43
2022-11-21T19:44:01.063Z,4.42
2022-11-21T19:46:33.427Z,4.41
2022-11-21T19:49:00.850Z,4.40
2022-11-21T19:51:39.487Z,4.39
2022-11-21T19:54:08.025Z,4.38
2022-11-21T19:56:35.852Z,4.38
2022-11-21T19:59:02.576Z,4.39
2022-11-21T20:01:31.270Z,4.38
2022-11-21T20:04:00.942Z,4.38
2022-11-21T20:06:32.671Z,4.37
2022-11-21T20:09:01.679Z,4.37
2022-11-21T20:11:30.149Z,4.39
2022-11-21T20:13:57.137Z,4.40
2022-11-21T20:16:30.534Z,4.40
2022-11-21T20:18:59.807Z,4.40
2022-11-21T20:21:26.760Z,4.40
2022-11-21T20:23:53.694Z,4.41
2022-11-21T20:26:22.035Z,4.43
2022-11-21T20:28:49.274Z,4.43
2022-11-21T20:31:18.667Z,4.43
2022-11-21T20:33:51.986Z,4.43
2022-11-21T20:36:22.627Z,4.43
2022-11-21T20:38:54.664Z,4.44
2022-11-21T20:41:23.820Z,4.47
2022-11-21T20:46:50.779Z,4.44
2022-11-21T20:49:18.134Z,4.44
2022-11-21T20:54:31.738Z,4.45
2022-11-21T20:56:58.456Z,4.46
2022-11-21T20:59:26.606Z,4.45
2022-11-21T21:01:53.374Z,4.44
2022-11-21T21:04:21.141Z,4.43
2022-11-21T21:06:47.636Z,4.44
2022-11-21T21:09:14.315Z,4.43
2022-11-21T21:11:57.456Z,4.42
2022-11-21T21:14:23.997Z,4.43
2022-11-21T21:16:50.816Z,4.43
2022-11-21T21:19:17.836Z,4.43
2022-11-21T21:21:44.515Z,4.43
2022-11-21T21:24:12.348Z,4.41
2022-11-21T21:26:42.893Z,4.40
2022-11-21T21:29:15.290Z,4.40
2022-11-21T21:31:49.654Z,4.41
2022-11-21T21:34:17.928Z,4.40
2022-11-21T21:36:44.783Z,4.42
2022-11-21T21:39:11.526Z,4.41
2022-11-21T21:41:46.408Z,4.41
2022-11-21T21:44:14.226Z,4.42
2022-11-21T21:46:40.985Z,4.41
2022-11-21T21:49:07.474Z,4.41
2022-11-21T21:51:37.272Z,4.40
2022-11-21T21:54:04.662Z,4.39
2022-11-21T21:56:31.431Z,4.41
2022-11-21T21:58:58.689Z,4.40
2022-11-21T22:01:26.720Z,4.39
2022-11-21T22:04:02.276Z,4.40
2022-11-21T22:06:29.585Z,4.40
2022-11-21T22:08:56.443Z,4.41
2022-11-21T22:11:25.916Z,4.42
2022-11-21T22:13:55.283Z,4.43
2022-11-21T22:16:22.258Z,4.42
2022-11-21T22:18:49.019Z,4.43
2022-11-21T22:21:21.238Z,4.41
2022-11-21T22:24:22.940Z,4.41
2022-11-21T22:26:34.906Z,4.42
2022-11-21T22:29:01.708Z,4.42
2022-11-21T22:31:31.402Z,4.40
2022-11-21T22:33:58.346Z,4.39
2022-11-21T22:36:25.109Z,4.37
2022-11-21T22:38:56.332Z,4.37
2022-11-21T22:41:25.934Z,4.37
2022-11-21T22:43:55.033Z,4.38
2022-11-21T22:46:22.773Z,4.37
2022-11-21T22:48:49.759Z,4.39
2022-11-21T22:51:19.929Z,4.38
2022-11-21T22:53:50.465Z,4.39
2022-11-21T22:56:22.460Z,4.37
2022-11-21T22:58:49.962Z,4.37
2022-11-21T23:01:19.049Z,4.35
2022-11-21T23:03:47.350Z,4.35
2022-11-21T23:06:18.724Z,4.37
2022-11-21T23:08:45.577Z,4.37
2022-11-21T23:11:17.631Z,4.36
2022-11-21T23:13:47.521Z,4.36
2022-11-21T23:16:15.075Z,4.35
2022-11-21T23:18:41.813Z,4.34
2022-11-21T23:21:09.714Z,4.33
2022-11-21T23:23:37.491Z,4.34
2022-11-21T23:26:04.803Z,4.34
2022-11-21T23:28:31.340Z,4.36
2022-11-21T23:30:58.121Z,4.36
2022-11-21T23:33:24.899Z,4.34
2022-11-21T23:35:51.735Z,4.34
2022-11-21T23:38:18.824Z,4.34
2022-11-21T23:40:46.515Z,4.35
2022-11-21T23:43:14.112Z,4.34
2022-11-21T23:45:41.017Z,4.35
2022-11-21T23:48:07.615Z,4.35
2022-11-21T23:50:34.240Z,4.36
2022-11-21T23:53:01.031Z,4.36
2022-11-21T23:55:28.337Z,4.37
2022-11-21T23:57:54.895Z,4.36
